sensor_id;sensor_type;location;lat;lon;timestamp;pressure;altitude;pressure_sealevel;temperature;humidity
75794;BME280;64418;47.536;19.074;2023-04-03T00:02:12;100200.44;;;6.64;61.67
75794;BME280;64418;47.536;19.074;2023-04-03T00:04:39;100200.69;;;6.54;61.95
75794;BME280;64418;47.536;19.074;2023-04-03T00:07:04;100197.63;;;6.57;62.33
75794;BME280;64418;47.536;19.074;2023-04-03T00:09:30;100177.88;;;6.50;61.76
75794;BME280;64418;47.536;19.074;2023-04-03T00:11:56;100195.31;;;6.54;61.74
75794;BME280;64418;47.536;19.074;2023-04-03T00:14:22;100192.81;;;6.53;61.74
75794;BME280;64418;47.536;19.074;2023-04-03T00:16:48;100198.56;;;6.50;61.92
75794;BME280;64418;47.536;19.074;2023-04-03T00:19:15;100197.28;;;6.46;61.96
75794;BME280;64418;47.536;19.074;2023-04-03T00:21:42;100200.06;;;6.52;61.85
75794;BME280;64418;47.536;19.074;2023-04-03T00:24:08;100200.78;;;6.46;61.97
75794;BME280;64418;47.536;19.074;2023-04-03T00:26:34;100207.28;;;6.52;61.80
75794;BME280;64418;47.536;19.074;2023-04-03T00:28:59;100200.69;;;6.54;61.75
75794;BME280;64418;47.536;19.074;2023-04-03T00:31:25;100200.31;;;6.57;61.40
75794;BME280;64418;47.536;19.074;2023-04-03T00:33:52;100202.56;;;6.54;61.57
75794;BME280;64418;47.536;19.074;2023-04-03T00:36:18;100205.16;;;6.47;61.71
75794;BME280;64418;47.536;19.074;2023-04-03T00:38:45;100204.50;;;6.45;61.79
75794;BME280;64418;47.536;19.074;2023-04-03T00:41:11;100208.78;;;6.54;61.55
75794;BME280;64418;47.536;19.074;2023-04-03T00:43:37;100209.81;;;6.53;61.57
75794;BME280;64418;47.536;19.074;2023-04-03T00:46:03;100207.38;;;6.58;61.46
75794;BME280;64418;47.536;19.074;2023-04-03T00:48:31;100209.06;;;6.59;61.15
75794;BME280;64418;47.536;19.074;2023-04-03T00:50:58;100211.28;;;6.56;61.31
75794;BME280;64418;47.536;19.074;2023-04-03T00:53:27;100210.16;;;6.50;61.42
75794;BME280;64418;47.536;19.074;2023-04-03T00:55:57;100216.13;;;6.60;60.95
75794;BME280;64418;47.536;19.074;2023-04-03T00:58:30;100217.59;;;6.48;61.12
75794;BME280;64418;47.536;19.074;2023-04-03T01:00:58;100226.69;;;6.47;61.20
75794;BME280;64418;47.536;19.074;2023-04-03T01:03:24;100231.69;;;6.50;60.99
75794;BME280;64418;47.536;19.074;2023-04-03T01:05:50;100222.59;;;6.51;60.97
75794;BME280;64418;47.536;19.074;2023-04-03T01:08:16;100228.44;;;6.40;61.08
75794;BME280;64418;47.536;19.074;2023-04-03T01:10:42;100227.34;;;6.49;60.94
75794;BME280;64418;47.536;19.074;2023-04-03T01:13:21;100227.13;;;6.36;61.23
75794;BME280;64418;47.536;19.074;2023-04-03T01:15:46;100226.69;;;6.47;60.98
75794;BME280;64418;47.536;19.074;2023-04-03T01:18:12;100223.06;;;6.40;61.07
75794;BME280;64418;47.536;19.074;2023-04-03T01:20:50;100226.59;;;6.41;60.69
75794;BME280;64418;47.536;19.074;2023-04-03T01:23:30;100228.88;;;6.29;60.94
75794;BME280;64418;47.536;19.074;2023-04-03T01:25:57;100220.06;;;6.35;60.98
75794;BME280;64418;47.536;19.074;2023-04-03T01:28:27;100224.81;;;6.33;61.00
75794;BME280;64418;47.536;19.074;2023-04-03T01:31:00;100220.50;;;6.24;61.19
75794;BME280;64418;47.536;19.074;2023-04-03T01:33:29;100211.44;;;6.25;61.14
75794;BME280;64418;47.536;19.074;2023-04-03T01:35:55;100214.13;;;6.25;60.99
75794;BME280;64418;47.536;19.074;2023-04-03T01:38:21;100213.59;;;6.29;60.83
75794;BME280;64418;47.536;19.074;2023-04-03T01:40:46;100217.81;;;6.24;60.90
75794;BME280;64418;47.536;19.074;2023-04-03T01:43:12;100216.59;;;6.12;61.01
75794;BME280;64418;47.536;19.074;2023-04-03T01:45:38;100217.19;;;6.22;60.62
75794;BME280;64418;47.536;19.074;2023-04-03T01:48:04;100224.47;;;6.13;61.04
75794;BME280;64418;47.536;19.074;2023-04-03T01:50:32;100223.37;;;6.08;61.05
75794;BME280;64418;47.536;19.074;2023-04-03T01:52:57;100223.06;;;6.03;60.92
75794;BME280;64418;47.536;19.074;2023-04-03T01:55:23;100233.81;;;6.03;60.92
75794;BME280;64418;47.536;19.074;2023-04-03T01:57:49;100229.66;;;6.00;61.06
75794;BME280;64418;47.536;19.074;2023-04-03T02:00:15;100237.88;;;5.99;60.99
75794;BME280;64418;47.536;19.074;2023-04-03T02:02:41;100238.84;;;6.06;60.69
75794;BME280;64418;47.536;19.074;2023-04-03T02:05:07;100237.56;;;5.94;60.88
75794;BME280;64418;47.536;19.074;2023-04-03T02:07:35;100244.94;;;6.00;60.83
75794;BME280;64418;47.536;19.074;2023-04-03T02:10:00;100244.56;;;6.03;60.69
75794;BME280;64418;47.536;19.074;2023-04-03T02:12:26;100249.16;;;5.94;60.89
75794;BME280;64418;47.536;19.074;2023-04-03T02:14:52;100246.00;;;5.91;61.17
75794;BME280;64418;47.536;19.074;2023-04-03T02:17:18;100250.75;;;5.89;61.18
75794;BME280;64418;47.536;19.074;2023-04-03T02:19:44;100246.97;;;5.98;61.07
75794;BME280;64418;47.536;19.074;2023-04-03T02:22:10;100248.81;;;5.97;61.08
75794;BME280;64418;47.536;19.074;2023-04-03T02:24:37;100253.06;;;5.92;61.16
75794;BME280;64418;47.536;19.074;2023-04-03T02:27:02;100246.00;;;5.91;61.41
75794;BME280;64418;47.536;19.074;2023-04-03T02:29:28;100246.56;;;5.78;61.60
75794;BME280;64418;47.536;19.074;2023-04-03T02:31:54;100247.47;;;5.70;61.91
75794;BME280;64418;47.536;19.074;2023-04-03T02:34:19;100245.81;;;5.69;61.74
75794;BME280;64418;47.536;19.074;2023-04-03T02:36:45;100242.81;;;5.64;62.07
75794;BME280;64418;47.536;19.074;2023-04-03T02:39:11;100245.00;;;5.61;62.05
75794;BME280;64418;47.536;19.074;2023-04-03T02:41:38;100241.31;;;5.62;61.74
75794;BME280;64418;47.536;19.074;2023-04-03T02:44:06;100240.84;;;5.58;62.01
75794;BME280;64418;47.536;19.074;2023-04-03T02:46:32;100251.75;;;5.57;61.97
75794;BME280;64418;47.536;19.074;2023-04-03T02:48:59;100236.00;;;5.54;62.25
75794;BME280;64418;47.536;19.074;2023-04-03T02:51:24;100248.28;;;5.48;62.28
75794;BME280;64418;47.536;19.074;2023-04-03T02:53:50;100243.94;;;5.47;62.30
75794;BME280;64418;47.536;19.074;2023-04-03T02:56:17;100252.12;;;5.54;62.17
75794;BME280;64418;47.536;19.074;2023-04-03T02:58:44;100242.91;;;5.48;62.29
75794;BME280;64418;47.536;19.074;2023-04-03T03:01:10;100246.75;;;5.23;62.88
75794;BME280;64418;47.536;19.074;2023-04-03T03:03:37;100254.75;;;5.31;62.87
75794;BME280;64418;47.536;19.074;2023-04-03T03:06:03;100249.72;;;5.36;62.65
75794;BME280;64418;47.536;19.074;2023-04-03T03:08:30;100248.91;;;5.27;62.81
75794;BME280;64418;47.536;19.074;2023-04-03T03:10:56;100251.28;;;5.22;63.10
75794;BME280;64418;47.536;19.074;2023-04-03T03:13:24;100257.97;;;5.26;63.06
75794;BME280;64418;47.536;19.074;2023-04-03T03:15:51;100259.84;;;5.18;63.28
75794;BME280;64418;47.536;19.074;2023-04-03T03:18:18;100261.03;;;5.15;63.44
75794;BME280;64418;47.536;19.074;2023-04-03T03:20:44;100261.53;;;5.19;63.38
75794;BME280;64418;47.536;19.074;2023-04-03T03:23:10;100266.25;;;5.17;63.36
75794;BME280;64418;47.536;19.074;2023-04-03T03:25:38;100263.06;;;5.13;63.50
75794;BME280;64418;47.536;19.074;2023-04-03T03:28:04;100260.19;;;5.15;63.35
75794;BME280;64418;47.536;19.074;2023-04-03T03:30:31;100269.59;;;5.11;63.63
75794;BME280;64418;47.536;19.074;2023-04-03T03:32:58;100259.34;;;5.14;63.51
75794;BME280;64418;47.536;19.074;2023-04-03T03:35:27;100259.19;;;5.16;63.65
75794;BME280;64418;47.536;19.074;2023-04-03T03:37:53;100257.22;;;5.10;63.84
75794;BME280;64418;47.536;19.074;2023-04-03T03:40:18;100260.56;;;5.12;63.91
75794;BME280;64418;47.536;19.074;2023-04-03T03:42:44;100260.78;;;5.02;64.00
75794;BME280;64418;47.536;19.074;2023-04-03T03:45:10;100266.47;;;4.99;64.21
75794;BME280;64418;47.536;19.074;2023-04-03T03:47:36;100251.56;;;4.97;64.28
75794;BME280;64418;47.536;19.074;2023-04-03T03:50:05;100267.06;;;4.78;65.03
75794;BME280;64418;47.536;19.074;2023-04-03T03:52:31;100274.75;;;4.81;64.89
75794;BME280;64418;47.536;19.074;2023-04-03T03:54:57;100262.31;;;4.89;64.77
75794;BME280;64418;47.536;19.074;2023-04-03T03:57:23;100270.09;;;4.75;65.16
75794;BME280;64418;47.536;19.074;2023-04-03T03:59:49;100270.75;;;4.61;65.52
75794;BME280;64418;47.536;19.074;2023-04-03T04:02:15;100276.47;;;4.66;65.49
75794;BME280;64418;47.536;19.074;2023-04-03T04:04:41;100274.13;;;4.71;65.34
75794;BME280;64418;47.536;19.074;2023-04-03T04:07:08;100269.41;;;4.65;65.59
75794;BME280;64418;47.536;19.074;2023-04-03T04:09:34;100259.03;;;4.62;65.67
75794;BME280;64418;47.536;19.074;2023-04-03T04:12:00;100263.91;;;4.59;65.91
75794;BME280;64418;47.536;19.074;2023-04-03T04:14:25;100264.56;;;4.61;66.12
75794;BME280;64418;47.536;19.074;2023-04-03T04:16:51;100269.97;;;4.53;66.28
75794;BME280;64418;47.536;19.074;2023-04-03T04:19:17;100268.78;;;4.47;66.58
75794;BME280;64418;47.536;19.074;2023-04-03T04:21:43;100269.97;;;4.45;66.54
75794;BME280;64418;47.536;19.074;2023-04-03T04:24:11;100271.13;;;4.42;66.50
75794;BME280;64418;47.536;19.074;2023-04-03T04:26:36;100280.69;;;4.45;66.56
75794;BME280;64418;47.536;19.074;2023-04-03T04:29:02;100280.34;;;4.23;67.09
75794;BME280;64418;47.536;19.074;2023-04-03T04:31:27;100275.84;;;4.24;67.42
75794;BME280;64418;47.536;19.074;2023-04-03T04:33:53;100286.56;;;4.24;67.49
75794;BME280;64418;47.536;19.074;2023-04-03T04:36:19;100287.41;;;4.24;67.42
75794;BME280;64418;47.536;19.074;2023-04-03T04:38:45;100284.56;;;4.26;67.59
75794;BME280;64418;47.536;19.074;2023-04-03T04:41:12;100275.84;;;4.16;67.58
75794;BME280;64418;47.536;19.074;2023-04-03T04:43:39;100287.09;;;4.11;68.28
75794;BME280;64418;47.536;19.074;2023-04-03T04:46:07;100290.44;;;4.13;68.27
75794;BME280;64418;47.536;19.074;2023-04-03T04:48:33;100290.59;;;4.20;67.80
75794;BME280;64418;47.536;19.074;2023-04-03T04:51:00;100291.63;;;4.19;67.79
75794;BME280;64418;47.536;19.074;2023-04-03T04:53:25;100290.44;;;4.21;67.89
75794;BME280;64418;47.536;19.074;2023-04-03T04:55:51;100287.91;;;4.20;68.02
75794;BME280;64418;47.536;19.074;2023-04-03T04:58:18;100298.97;;;4.25;67.95
75794;BME280;64418;47.536;19.074;2023-04-03T05:00:44;100292.78;;;4.32;67.53
75794;BME280;64418;47.536;19.074;2023-04-03T05:03:10;100296.62;;;4.30;67.47
75794;BME280;64418;47.536;19.074;2023-04-03T05:05:36;100287.22;;;4.50;67.00
75794;BME280;64418;47.536;19.074;2023-04-03T05:08:03;100303.34;;;4.34;67.32
75794;BME280;64418;47.536;19.074;2023-04-03T05:10:30;100298.28;;;4.55;66.80
75794;BME280;64418;47.536;19.074;2023-04-03T05:12:56;100300.31;;;4.45;66.72
75794;BME280;64418;47.536;19.074;2023-04-03T05:15:23;100304.69;;;4.38;67.06
75794;BME280;64418;47.536;19.074;2023-04-03T05:17:49;100307.53;;;4.36;67.23
75794;BME280;64418;47.536;19.074;2023-04-03T05:20:16;100315.06;;;4.41;67.29
75794;BME280;64418;47.536;19.074;2023-04-03T05:22:43;100318.41;;;4.51;66.85
75794;BME280;64418;47.536;19.074;2023-04-03T05:25:12;100320.59;;;4.40;67.38
75794;BME280;64418;47.536;19.074;2023-04-03T05:27:38;100318.75;;;4.56;66.82
75794;BME280;64418;47.536;19.074;2023-04-03T05:30:05;100317.41;;;4.52;66.72
75794;BME280;64418;47.536;19.074;2023-04-03T05:32:33;100316.91;;;4.49;66.99
75794;BME280;64418;47.536;19.074;2023-04-03T05:34:59;100317.06;;;4.47;67.09
75794;BME280;64418;47.536;19.074;2023-04-03T05:37:24;100310.69;;;4.64;68.32
75794;BME280;64418;47.536;19.074;2023-04-03T05:39:51;100310.69;;;4.64;66.59
75794;BME280;64418;47.536;19.074;2023-04-03T05:42:18;100319.09;;;4.45;67.30
75794;BME280;64418;47.536;19.074;2023-04-03T05:44:44;100313.38;;;4.40;67.39
75794;BME280;64418;47.536;19.074;2023-04-03T05:47:13;100312.19;;;4.43;67.35
75794;BME280;64418;47.536;19.074;2023-04-03T05:49:41;100321.78;;;4.45;67.57
75794;BME280;64418;47.536;19.074;2023-04-03T05:52:11;100329.63;;;4.47;67.60
75794;BME280;64418;47.536;19.074;2023-04-03T05:54:43;100321.25;;;4.50;67.30
75794;BME280;64418;47.536;19.074;2023-04-03T05:57:09;100331.16;;;4.49;67.29
75794;BME280;64418;47.536;19.074;2023-04-03T05:59:35;100325.94;;;4.48;67.32
75794;BME280;64418;47.536;19.074;2023-04-03T06:02:01;100329.13;;;4.59;66.80
75794;BME280;64418;47.536;19.074;2023-04-03T06:04:27;100326.25;;;4.61;66.70
75794;BME280;64418;47.536;19.074;2023-04-03T06:06:56;100329.97;;;4.60;66.78
75794;BME280;64418;47.536;19.074;2023-04-03T06:09:24;100326.94;;;4.71;66.62
75794;BME280;64418;47.536;19.074;2023-04-03T06:11:50;100328.78;;;4.78;66.19
75794;BME280;64418;47.536;19.074;2023-04-03T06:14:16;100333.62;;;4.75;66.24
75794;BME280;64418;47.536;19.074;2023-04-03T06:16:43;100321.38;;;4.80;65.88
75794;BME280;64418;47.536;19.074;2023-04-03T06:19:09;100333.09;;;4.87;65.97
75794;BME280;64418;47.536;19.074;2023-04-03T06:21:35;100328.03;;;5.01;66.06
75794;BME280;64418;47.536;19.074;2023-04-03T06:24:02;100335.37;;;5.15;65.68
75794;BME280;64418;47.536;19.074;2023-04-03T06:26:28;100343.34;;;5.47;64.73
75794;BME280;64418;47.536;19.074;2023-04-03T06:28:53;100335.19;;;5.63;64.06
75794;BME280;64418;47.536;19.074;2023-04-03T06:31:19;100338.78;;;5.87;63.37
75794;BME280;64418;47.536;19.074;2023-04-03T06:33:46;100346.56;;;6.04;62.82
75794;BME280;64418;47.536;19.074;2023-04-03T06:36:12;100342.22;;;6.26;61.82
75794;BME280;64418;47.536;19.074;2023-04-03T06:38:38;100340.28;;;6.35;61.43
75794;BME280;64418;47.536;19.074;2023-04-03T06:41:06;100351.84;;;6.43;60.97
75794;BME280;64418;47.536;19.074;2023-04-03T06:43:32;100342.97;;;6.57;60.87
75794;BME280;64418;47.536;19.074;2023-04-03T06:45:58;100343.25;;;6.62;60.69
75794;BME280;64418;47.536;19.074;2023-04-03T06:48:24;100343.97;;;6.79;60.34
75794;BME280;64418;47.536;19.074;2023-04-03T06:50:50;100350.22;;;7.09;59.15
75794;BME280;64418;47.536;19.074;2023-04-03T06:53:15;100337.84;;;7.14;58.48
75794;BME280;64418;47.536;19.074;2023-04-03T06:55:41;100346.13;;;7.42;57.22
75794;BME280;64418;47.536;19.074;2023-04-03T06:58:08;100349.75;;;7.35;56.58
75794;BME280;64418;47.536;19.074;2023-04-03T07:00:34;100350.50;;;7.58;56.13
75794;BME280;64418;47.536;19.074;2023-04-03T07:03:01;100357.75;;;7.57;55.53
75794;BME280;64418;47.536;19.074;2023-04-03T07:05:27;100364.47;;;7.83;54.45
75794;BME280;64418;47.536;19.074;2023-04-03T07:07:54;100364.47;;;7.83;53.96
75794;BME280;64418;47.536;19.074;2023-04-03T07:10:19;100370.53;;;7.85;53.47
75794;BME280;64418;47.536;19.074;2023-04-03T07:12:45;100379.69;;;8.05;52.98
75794;BME280;64418;47.536;19.074;2023-04-03T07:15:13;100383.09;;;7.92;52.94
75794;BME280;64418;47.536;19.074;2023-04-03T07:17:39;100384.25;;;8.40;51.78
75794;BME280;64418;47.536;19.074;2023-04-03T07:20:07;100379.72;;;8.26;51.47
75794;BME280;64418;47.536;19.074;2023-04-03T07:22:33;100391.06;;;8.57;51.43
75794;BME280;64418;47.536;19.074;2023-04-03T07:24:58;100386.19;;;8.67;49.98
75794;BME280;64418;47.536;19.074;2023-04-03T07:27:24;100377.81;;;8.84;50.16
75794;BME280;64418;47.536;19.074;2023-04-03T07:29:50;100383.84;;;8.86;50.12
75794;BME280;64418;47.536;19.074;2023-04-03T07:32:17;100379.47;;;9.06;49.15
75794;BME280;64418;47.536;19.074;2023-04-03T07:34:44;100383.63;;;9.08;48.90
75794;BME280;64418;47.536;19.074;2023-04-03T07:37:10;100385.94;;;9.11;48.45
75794;BME280;64418;47.536;19.074;2023-04-03T07:39:36;100383.47;;;9.16;48.71
75794;BME280;64418;47.536;19.074;2023-04-03T07:42:02;100388.66;;;9.18;48.21
75794;BME280;64418;47.536;19.074;2023-04-03T07:44:28;100384.44;;;9.37;47.89
75794;BME280;64418;47.536;19.074;2023-04-03T07:46:54;100387.91;;;9.24;47.37
75794;BME280;64418;47.536;19.074;2023-04-03T07:49:22;100382.87;;;9.21;47.29
75794;BME280;64418;47.536;19.074;2023-04-03T07:51:48;100382.09;;;9.27;46.66
75794;BME280;64418;47.536;19.074;2023-04-03T07:54:13;100391.62;;;9.23;47.40
75794;BME280;64418;47.536;19.074;2023-04-03T07:56:40;100393.19;;;9.73;46.45
75794;BME280;64418;47.536;19.074;2023-04-03T07:59:06;100394.06;;;9.87;46.14
75794;BME280;64418;47.536;19.074;2023-04-03T08:01:31;100396.06;;;9.37;46.43
75794;BME280;64418;47.536;19.074;2023-04-03T08:03:57;100398.78;;;9.72;46.15
75794;BME280;64418;47.536;19.074;2023-04-03T08:06:24;100399.19;;;10.16;45.26
75794;BME280;64418;47.536;19.074;2023-04-03T08:08:50;100400.09;;;10.23;44.91
75794;BME280;64418;47.536;19.074;2023-04-03T08:11:16;100400.09;;;10.36;44.75
75794;BME280;64418;47.536;19.074;2023-04-03T08:13:41;100404.47;;;9.90;45.16
75794;BME280;64418;47.536;19.074;2023-04-03T08:16:11;100407.56;;;10.21;44.91
75794;BME280;64418;47.536;19.074;2023-04-03T08:18:38;100401.81;;;10.50;44.07
75794;BME280;64418;47.536;19.074;2023-04-03T08:21:06;100404.31;;;10.58;43.39
75794;BME280;64418;47.536;19.074;2023-04-03T08:23:34;100408.09;;;10.77;43.63
75794;BME280;64418;47.536;19.074;2023-04-03T08:26:08;100404.34;;;10.85;43.43
75794;BME280;64418;47.536;19.074;2023-04-03T08:28:34;100398.22;;;11.75;41.57
75794;BME280;64418;47.536;19.074;2023-04-03T08:31:06;100400.69;;;11.89;41.07
75794;BME280;64418;47.536;19.074;2023-04-03T08:33:32;100406.47;;;12.44;40.14
75794;BME280;64418;47.536;19.074;2023-04-03T08:35:59;100406.22;;;13.94;36.63
75794;BME280;64418;47.536;19.074;2023-04-03T08:38:25;100412.88;;;14.16;36.47
75794;BME280;64418;47.536;19.074;2023-04-03T08:41:04;100412.28;;;15.15;35.13
75794;BME280;64418;47.536;19.074;2023-04-03T08:43:36;100415.53;;;15.82;32.99
75794;BME280;64418;47.536;19.074;2023-04-03T08:46:11;100412.94;;;14.76;34.67
75794;BME280;64418;47.536;19.074;2023-04-03T08:48:41;100420.59;;;15.20;33.86
75794;BME280;64418;47.536;19.074;2023-04-03T08:51:11;100410.06;;;14.71;34.44
75794;BME280;64418;47.536;19.074;2023-04-03T08:53:40;100409.25;;;14.22;34.85
75794;BME280;64418;47.536;19.074;2023-04-03T08:56:10;100419.03;;;14.60;34.47
75794;BME280;64418;47.536;19.074;2023-04-03T08:58:41;100410.97;;;16.11;32.25
75794;BME280;64418;47.536;19.074;2023-04-03T09:01:17;100408.59;;;16.99;30.33
75794;BME280;64418;47.536;19.074;2023-04-03T09:03:44;100412.53;;;17.42;29.80
75794;BME280;64418;47.536;19.074;2023-04-03T09:06:13;100411.09;;;16.44;31.12
75794;BME280;64418;47.536;19.074;2023-04-03T09:08:44;100405.72;;;16.09;30.29
75794;BME280;64418;47.536;19.074;2023-04-03T09:11:19;100412.78;;;15.24;32.37
75794;BME280;64418;47.536;19.074;2023-04-03T09:13:50;100415.63;;;15.17;31.58
75794;BME280;64418;47.536;19.074;2023-04-03T09:16:30;100418.56;;;14.63;32.88
75794;BME280;64418;47.536;19.074;2023-04-03T09:19:07;100409.63;;;16.13;30.43
75794;BME280;64418;47.536;19.074;2023-04-03T09:21:39;100409.28;;;16.50;30.44
75794;BME280;64418;47.536;19.074;2023-04-03T09:24:06;100402.22;;;17.82;28.04
75794;BME280;64418;47.536;19.074;2023-04-03T09:26:36;100410.28;;;17.72;28.18
75794;BME280;64418;47.536;19.074;2023-04-03T09:29:06;100415.38;;;17.47;28.94
75794;BME280;64418;47.536;19.074;2023-04-03T09:31:37;100415.50;;;18.34;27.31
75794;BME280;64418;47.536;19.074;2023-04-03T09:34:08;100419.19;;;18.01;27.59
75794;BME280;64418;47.536;19.074;2023-04-03T09:36:40;100410.06;;;16.62;29.74
75794;BME280;64418;47.536;19.074;2023-04-03T09:39:12;100410.44;;;16.25;29.81
75794;BME280;64418;47.536;19.074;2023-04-03T09:41:54;100410.31;;;17.39;28.82
75794;BME280;64418;47.536;19.074;2023-04-03T09:44:23;100416.22;;;16.41;30.05
75794;BME280;64418;47.536;19.074;2023-04-03T09:46:50;100407.13;;;18.02;28.04
75794;BME280;64418;47.536;19.074;2023-04-03T09:49:18;100406.84;;;17.60;28.35
75794;BME280;64418;47.536;19.074;2023-04-03T09:51:44;100406.09;;;17.48;28.67
75794;BME280;64418;47.536;19.074;2023-04-03T09:54:29;100408.09;;;17.02;29.35
75794;BME280;64418;47.536;19.074;2023-04-03T09:56:57;100397.25;;;15.24;31.16
75794;BME280;64418;47.536;19.074;2023-04-03T09:59:27;100395.44;;;15.41;31.48
75794;BME280;64418;47.536;19.074;2023-04-03T10:02:23;100401.50;;;15.20;31.49
75794;BME280;64418;47.536;19.074;2023-04-03T10:04:53;100398.81;;;14.19;33.03
75794;BME280;64418;47.536;19.074;2023-04-03T10:07:31;100396.72;;;13.67;33.91
75794;BME280;64418;47.536;19.074;2023-04-03T10:09:59;100395.63;;;13.49;34.16
75794;BME280;64418;47.536;19.074;2023-04-03T10:12:27;100401.94;;;12.31;36.57
75794;BME280;64418;47.536;19.074;2023-04-03T10:14:55;100403.31;;;12.16;37.08
75794;BME280;64418;47.536;19.074;2023-04-03T10:17:37;100398.84;;;11.64;37.91
75794;BME280;64418;47.536;19.074;2023-04-03T10:20:13;100404.47;;;11.82;37.57
75794;BME280;64418;47.536;19.074;2023-04-03T10:22:54;100397.03;;;12.15;36.92
75794;BME280;64418;47.536;19.074;2023-04-03T10:25:28;100403.44;;;11.70;37.85
75794;BME280;64418;47.536;19.074;2023-04-03T10:28:01;100400.91;;;12.32;36.68
75794;BME280;64418;47.536;19.074;2023-04-03T10:30:34;100404.38;;;12.08;37.01
75794;BME280;64418;47.536;19.074;2023-04-03T10:33:11;100397.44;;;12.19;36.81
75794;BME280;64418;47.536;19.074;2023-04-03T10:35:47;100407.38;;;12.31;36.40
75794;BME280;64418;47.536;19.074;2023-04-03T10:38:43;100405.38;;;12.14;36.58
75794;BME280;64418;47.536;19.074;2023-04-03T10:41:17;100410.53;;;11.77;37.25
75794;BME280;64418;47.536;19.074;2023-04-03T10:43:52;100403.81;;;11.93;36.90
75794;BME280;64418;47.536;19.074;2023-04-03T10:46:23;100397.19;;;11.63;37.14
75794;BME280;64418;47.536;19.074;2023-04-03T10:49:01;100399.94;;;11.49;37.34
75794;BME280;64418;47.536;19.074;2023-04-03T10:51:33;100397.41;;;11.61;36.92
75794;BME280;64418;47.536;19.074;2023-04-03T10:54:08;100396.31;;;11.88;36.58
75794;BME280;64418;47.536;19.074;2023-04-03T10:56:38;100390.97;;;12.13;36.13
75794;BME280;64418;47.536;19.074;2023-04-03T10:59:16;100389.97;;;12.07;36.30
75794;BME280;64418;47.536;19.074;2023-04-03T11:01:45;100392.69;;;12.01;36.72
75794;BME280;64418;47.536;19.074;2023-04-03T11:04:14;100391.56;;;12.22;36.52
75794;BME280;64418;47.536;19.074;2023-04-03T11:06:47;100396.41;;;12.51;36.11
75794;BME280;64418;47.536;19.074;2023-04-03T11:09:22;100400.94;;;12.64;35.82
75794;BME280;64418;47.536;19.074;2023-04-03T11:11:51;100400.94;;;12.64;35.66
75794;BME280;64418;47.536;19.074;2023-04-03T11:14:26;100386.75;;;12.55;35.46
75794;BME280;64418;47.536;19.074;2023-04-03T11:16:59;100394.34;;;12.46;35.31
75794;BME280;64418;47.536;19.074;2023-04-03T11:19:34;100394.28;;;12.60;35.04
75794;BME280;64418;47.536;19.074;2023-04-03T11:22:03;100379.63;;;12.61;34.89
75794;BME280;64418;47.536;19.074;2023-04-03T11:24:32;100385.78;;;12.12;35.64
75794;BME280;64418;47.536;19.074;2023-04-03T11:27:01;100381.19;;;12.50;35.07
75794;BME280;64418;47.536;19.074;2023-04-03T11:29:36;100380.94;;;12.51;34.99
75794;BME280;64418;47.536;19.074;2023-04-03T11:32:11;100375.44;;;12.65;35.03
75794;BME280;64418;47.536;19.074;2023-04-03T11:34:45;100376.09;;;12.85;34.58
75794;BME280;64418;47.536;19.074;2023-04-03T11:37:17;100370.66;;;12.85;34.50
75794;BME280;64418;47.536;19.074;2023-04-03T11:39:52;100364.75;;;12.94;34.52
75794;BME280;64418;47.536;19.074;2023-04-03T11:42:28;100358.00;;;12.97;34.43
75794;BME280;64418;47.536;19.074;2023-04-03T11:45:22;100361.91;;;12.83;34.07
75794;BME280;64418;47.536;19.074;2023-04-03T11:47:50;100358.03;;;12.41;34.66
75794;BME280;64418;47.536;19.074;2023-04-03T11:50:42;100358.94;;;12.28;35.10
75794;BME280;64418;47.536;19.074;2023-04-03T11:53:29;100365.25;;;12.22;35.14
75794;BME280;64418;47.536;19.074;2023-04-03T11:55:57;100362.13;;;12.19;35.62
75794;BME280;64418;47.536;19.074;2023-04-03T11:58:25;100364.72;;;12.00;35.56
75794;BME280;64418;47.536;19.074;2023-04-03T12:01:01;100364.00;;;11.74;35.77
75794;BME280;64418;47.536;19.074;2023-04-03T12:06:59;100364.38;;;11.84;36.19
75794;BME280;64418;47.536;19.074;2023-04-03T12:09:33;100361.94;;;11.49;36.90
75794;BME280;64418;47.536;19.074;2023-04-03T12:12:01;100365.91;;;11.53;36.97
75794;BME280;64418;47.536;19.074;2023-04-03T12:14:46;100360.53;;;11.40;37.22
75794;BME280;64418;47.536;19.074;2023-04-03T12:17:20;100352.78;;;11.37;37.41
75794;BME280;64418;47.536;19.074;2023-04-03T12:19:48;100358.81;;;11.59;37.10
75794;BME280;64418;47.536;19.074;2023-04-03T12:22:16;100348.28;;;11.89;36.50
75794;BME280;64418;47.536;19.074;2023-04-03T12:24:44;100354.56;;;11.89;36.46
75794;BME280;64418;47.536;19.074;2023-04-03T12:27:33;100354.50;;;11.96;36.26
75794;BME280;64418;47.536;19.074;2023-04-03T12:30:05;100356.00;;;11.92;36.44
75794;BME280;64418;47.536;19.074;2023-04-03T12:32:45;100339.97;;;11.77;36.55
75794;BME280;64418;47.536;19.074;2023-04-03T12:35:21;100346.81;;;12.24;35.93
75794;BME280;64418;47.536;19.074;2023-04-03T12:38:23;100346.59;;;11.88;36.43
75794;BME280;64418;47.536;19.074;2023-04-03T12:40:57;100354.03;;;12.12;36.12
75794;BME280;64418;47.536;19.074;2023-04-03T12:46:37;100346.13;;;12.35;35.63
75794;BME280;64418;47.536;19.074;2023-04-03T12:49:20;100344.63;;;12.46;35.35
75794;BME280;64418;47.536;19.074;2023-04-03T12:51:50;100338.41;;;12.32;35.35
75794;BME280;64418;47.536;19.074;2023-04-03T12:54:19;100338.53;;;12.13;35.84
75794;BME280;64418;47.536;19.074;2023-04-03T12:56:48;100342.34;;;12.05;36.22
75794;BME280;64418;47.536;19.074;2023-04-03T12:59:16;100338.53;;;12.19;36.56
75794;BME280;64418;47.536;19.074;2023-04-03T13:01:43;100341.78;;;12.28;36.28